Time;durP1;ratioP1;P1;durP2;ratioP2;P2;SDS_P1;SDS_P2;PMS_P1;PMS_P2;Temp;Humidity;BMP_temperature;BMP_pressure;BME280_temperature;BME280_humidity;BME280_pressure;Samples;Min_cycle;Max_cycle;Signal;HPM_P1;HPM_P2
2023/01/04 00:00:03;;;;;;;31.63;19.67;;;;;;;7.50;79.25;96146.78;4934585;28;20501;-82
2023/01/04 00:02:29;;;;;;;32.05;17.67;;;;;;;7.32;78.84;96102.06;4934365;29;20536;-83
2023/01/04 00:04:54;;;;;;;34.70;15.95;;;;;;;7.95;78.64;96181.28;4957134;28;20113;-82
2023/01/04 00:07:20;;;;;;;29.63;16.45;;;;;;;7.32;78.65;96073.03;4953989;28;20034;-82
2023/01/04 00:09:45;;;;;;;32.75;17.08;;;;;;;7.32;78.25;96071.16;4971668;28;20037;-82
2023/01/04 00:12:11;;;;;;;26.48;16.05;;;;;;;7.39;78.41;96072.91;4971213;28;20375;-82
2023/01/04 00:14:36;;;;;;;25.25;15.32;;;;;;;7.84;78.27;96137.25;4961318;28;20031;-82
2023/01/04 00:17:01;;;;;;;26.20;15.57;;;;;;;7.53;78.39;96088.28;4962558;28;20035;-83
2023/01/04 00:19:27;;;;;;;27.20;15.13;;;;;;;8.08;78.54;96196.13;4953830;28;20030;-83
2023/01/04 00:21:52;;;;;;;24.77;15.50;;;;;;;8.13;78.55;96178.50;4970935;28;20043;-83
2023/01/04 00:24:18;;;;;;;24.92;15.70;;;;;;;8.19;78.42;96178.59;4970980;28;20093;-83
2023/01/04 00:26:43;;;;;;;23.95;15.63;;;;;;;7.49;78.17;96068.63;4953697;28;20033;-83
2023/01/04 00:29:11;;;;;;;29.85;15.45;;;;;;;8.26;77.36;96182.72;4971471;28;20505;-82
2023/01/04 00:31:37;;;;;;;26.75;15.43;;;;;;;7.90;77.50;96128.38;4953346;28;20091;-82
2023/01/04 00:34:03;;;;;;;24.90;15.15;;;;;;;8.26;77.63;96180.09;4935801;28;20035;-83
2023/01/04 00:36:29;;;;;;;27.25;13.57;;;;;;;8.20;77.18;96165.16;4969686;28;20107;-84
2023/01/04 00:39:06;;;;;;;22.42;14.02;;;;;;;7.81;77.11;96103.34;4949780;29;20118;-82
2023/01/04 00:41:37;;;;;;;23.50;13.50;;;;;;;8.28;77.33;96179.84;4934125;29;20027;-83
2023/01/04 00:44:07;;;;;;;22.13;12.70;;;;;;;7.72;76.60;96087.06;4952029;29;20366;-83
2023/01/04 00:46:33;;;;;;;24.90;14.02;;;;;;;7.34;76.46;96026.09;4961345;28;20074;-83
2023/01/04 00:49:00;;;;;;;22.35;13.90;;;;;;;7.72;76.08;96092.34;4950440;29;20160;-83
2023/01/04 00:51:27;;;;;;;19.98;12.60;;;;;;;8.37;75.64;96189.88;4953823;28;20030;-82
2023/01/04 00:53:53;;;;;;;24.90;13.25;;;;;;;8.35;75.87;96197.22;4970872;28;20031;-82
2023/01/04 00:56:18;;;;;;;23.05;14.48;;;;;;;7.82;76.20;96112.88;4970649;28;20469;-83
2023/01/04 00:58:44;;;;;;;23.45;14.27;;;;;;;7.78;76.12;96110.97;4970620;28;20059;-82
2023/01/04 01:01:09;;;;;;;23.67;13.10;;;;;;;7.75;76.22;96105.09;4952462;28;20087;-82
2023/01/04 01:03:35;;;;;;;20.10;13.20;;;;;;;8.19;75.90;96170.69;4934342;28;20090;-82
2023/01/04 01:06:02;;;;;;;20.73;13.52;;;;;;;7.95;76.18;96135.59;4951574;28;20037;-82
2023/01/04 01:08:27;;;;;;;24.08;14.25;;;;;;;8.13;75.58;96164.50;4934054;29;20038;-82
2023/01/04 01:10:53;;;;;;;20.95;13.25;;;;;;;7.67;76.00;96115.22;4955763;28;20031;-82
2023/01/04 01:13:20;;;;;;;20.17;14.07;;;;;;;7.89;76.01;96142.63;4953339;28;20022;-83
2023/01/04 01:15:45;;;;;;;26.73;15.15;;;;;;;7.89;75.55;96144.44;4974432;28;20030;-82
2023/01/04 01:18:12;;;;;;;30.70;18.20;;;;;;;7.97;75.33;96178.44;4974572;28;20046;-82
2023/01/04 01:20:44;;;;;;;30.63;17.38;;;;;;;8.08;75.49;96202.19;4956689;28;20154;-82
2023/01/04 01:23:12;;;;;;;28.13;15.50;;;;;;;7.65;75.98;96127.84;4974533;28;20040;-82
2023/01/04 01:25:37;;;;;;;33.05;17.95;;;;;;;7.94;76.07;96170.97;4962783;28;20038;-82
2023/01/04 01:28:03;;;;;;;38.08;19.95;;;;;;;7.87;74.87;96162.34;4967700;28;20043;-82
2023/01/04 01:30:28;;;;;;;38.75;21.40;;;;;;;7.94;75.44;96206.09;4960915;28;20117;-82
2023/01/04 01:32:54;;;;;;;44.65;24.88;;;;;;;6.94;74.52;96065.59;4952958;28;20038;-81
2023/01/04 01:35:19;;;;;;;24.38;15.32;;;;;;;7.65;76.81;96168.25;4956768;28;20034;-82
2023/01/04 01:37:44;;;;;;;26.33;15.80;;;;;;;7.48;76.89;96125.09;4939476;29;20121;-82
2023/01/04 01:40:10;;;;;;;25.40;15.82;;;;;;;7.78;76.69;96169.84;4972720;28;20074;-83
2023/01/04 01:42:35;;;;;;;26.00;15.23;;;;;;;7.49;76.61;96112.69;4973233;28;20501;-83
2023/01/04 01:45:09;;;;;;;25.60;15.07;;;;;;;7.49;76.41;96124.06;4956662;28;20558;-83
2023/01/04 01:47:42;;;;;;;30.10;14.52;;;;;;;7.74;76.75;96148.38;4973883;28;20528;-83
2023/01/04 01:50:37;;;;;;;25.52;14.52;;;;;;;8.11;76.62;96220.22;4950569;29;20032;-83
2023/01/04 01:53:06;;;;;;;27.42;15.13;;;;;;;8.15;76.11;96202.06;4916891;29;20044;-83
2023/01/04 01:55:32;;;;;;;30.42;15.70;;;;;;;7.67;76.57;96128.41;4937275;29;20031;-83
2023/01/04 01:57:59;;;;;;;27.30;14.00;;;;;;;8.00;76.32;96181.44;4968266;28;20481;-83
2023/01/04 02:00:26;;;;;;;24.58;15.63;;;;;;;7.88;76.09;96156.84;4941898;29;20031;-82
2023/01/04 02:03:04;;;;;;;24.70;15.77;;;;;;;8.03;77.11;96185.41;4937069;29;20126;-83
2023/01/04 02:05:31;;;;;;;25.42;15.85;;;;;;;7.59;76.91;96120.84;4937506;28;20528;-83
2023/01/04 02:07:57;;;;;;;26.02;15.02;;;;;;;8.05;77.03;96180.72;4957986;28;20038;-83
2023/01/04 02:10:23;;;;;;;31.35;16.30;;;;;;;7.56;77.41;96119.47;4956074;28;20401;-82
2023/01/04 02:12:50;;;;;;;28.02;15.95;;;;;;;7.91;77.66;96192.56;4973340;28;20027;-83
2023/01/04 02:15:16;;;;;;;26.10;16.13;;;;;;;7.86;77.59;96185.31;4956134;28;20039;-83
2023/01/04 02:17:50;;;;;;;31.85;16.55;;;;;;;7.53;77.51;96141.06;4973835;28;20045;-82
2023/01/04 02:20:34;;;;;;;27.52;16.13;;;;;;;7.93;77.52;96190.50;4973139;28;20051;-82
2023/01/04 02:23:25;;;;;;;28.40;16.35;;;;;;;7.81;77.71;96176.50;4958553;28;20046;-83
2023/01/04 02:26:18;;;;;;;31.33;16.57;;;;;;;7.90;77.70;96201.53;4971443;28;20035;-82
2023/01/04 02:28:56;;;;;;;38.90;16.95;;;;;;;7.59;77.75;96152.53;4941892;28;20039;-83
2023/01/04 02:31:26;;;;;;;29.42;16.65;;;;;;;7.82;78.24;96184.19;4965498;28;20029;-83
2023/01/04 02:34:12;;;;;;;31.73;18.30;;;;;;;7.75;78.75;96186.16;4935259;29;20058;-83
2023/01/04 02:37:10;;;;;;;37.75;17.45;;;;;;;7.67;78.28;96157.47;4940357;29;20043;-82
2023/01/04 02:39:38;;;;;;;35.10;19.42;;;;;;;7.73;78.80;96185.56;4941067;28;20130;-82
2023/01/04 02:42:17;;;;;;;32.97;19.13;;;;;;;7.70;78.64;96181.53;4960334;28;20517;-82
2023/01/04 02:44:56;;;;;;;34.72;18.02;;;;;;;7.69;78.75;96190.53;4937277;29;20039;-83
2023/01/04 02:50:34;;;;;;;35.47;20.08;;;;;;;7.03;79.01;96093.19;4963392;28;20429;-83
2023/01/04 02:53:16;;;;;;;36.17;19.17;;;;;;;7.57;79.05;96179.16;4953732;28;20489;-80
2023/01/04 02:56:03;;;;;;;35.72;20.33;;;;;;;7.58;79.21;96187.88;4953977;28;20448;-80
2023/01/04 02:58:58;;;;;;;37.75;19.73;;;;;;;7.01;79.43;96103.19;4947115;29;20047;-80
2023/01/04 03:07:58;;;;;;;34.58;17.70;;;;;;;7.01;79.71;96116.38;4953492;28;20429;-80
2023/01/04 03:10:34;;;;;;;33.05;19.30;;;;;;;7.39;80.28;96178.47;4956573;28;20054;-80
2023/01/04 03:13:09;;;;;;;33.35;18.13;;;;;;;6.90;79.83;96114.53;4953299;28;20110;-79
2023/01/04 03:15:39;;;;;;;35.47;19.67;;;;;;;6.80;79.98;96083.44;4959495;28;20054;-80
2023/01/04 03:18:26;;;;;;;34.35;19.30;;;;;;;7.40;79.79;96194.06;4944606;28;20109;-80
2023/01/04 03:20:56;;;;;;;33.97;19.52;;;;;;;7.37;79.87;96181.34;4951662;28;20103;-80
2023/01/04 03:35:22;;;;;;;37.25;20.95;;;;;;;7.06;80.03;96149.97;4913852;29;20352;-80
2023/01/04 03:50:39;;;;;;;43.05;19.70;;;;;;;7.20;80.60;96193.56;4941690;28;20042;-80
2023/01/04 03:53:07;;;;;;;31.95;18.67;;;;;;;6.83;80.68;96138.38;4939937;29;20127;-80
2023/01/04 03:55:35;;;;;;;41.75;20.88;;;;;;;6.78;80.69;96130.34;4928271;29;20035;-80
2023/01/04 03:58:01;;;;;;;31.42;18.42;;;;;;;6.67;80.32;96112.66;4921968;29;20036;-80
2023/01/04 04:00:27;;;;;;;39.05;20.20;;;;;;;6.91;80.39;96163.59;4935741;29;20491;-80
2023/01/04 04:02:52;;;;;;;31.33;18.20;;;;;;;6.66;80.73;96121.59;4916566;29;20043;-80
2023/01/04 04:08:24;;;;;;;38.65;17.80;;;;;;;7.10;80.42;96212.59;4930747;29;20502;-80
2023/01/04 04:10:50;;;;;;;29.63;17.35;;;;;;;7.12;80.63;96221.09;4946828;29;20521;-80
2023/01/04 04:13:15;;;;;;;29.20;18.00;;;;;;;6.91;80.09;96160.97;4934541;29;20032;-80
2023/01/04 04:15:41;;;;;;;38.15;19.75;;;;;;;6.36;80.26;96094.47;4943283;29;20067;-80
2023/01/04 04:18:06;;;;;;;39.75;18.63;;;;;;;6.32;79.93;96078.31;4934949;29;20032;-80
2023/01/04 04:20:32;;;;;;;36.42;18.35;;;;;;;6.79;79.95;96142.47;4946667;29;20138;-80
2023/01/04 04:22:57;;;;;;;39.35;17.90;;;;;;;6.42;79.60;96081.19;4942789;29;20039;-80
2023/01/04 04:25:23;;;;;;;36.70;17.63;;;;;;;6.91;80.10;96168.88;4935904;29;20533;-80
2023/01/04 04:27:48;;;;;;;31.58;17.63;;;;;;;7.26;79.95;96208.50;4965138;28;20114;-79
2023/01/04 04:30:14;;;;;;;34.45;17.50;;;;;;;7.18;80.14;96185.09;4947933;29;20039;-80
2023/01/04 04:32:39;;;;;;;32.83;17.80;;;;;;;6.45;79.97;96111.56;4934293;29;20126;-80
2023/01/04 04:35:05;;;;;;;31.52;17.67;;;;;;;6.76;79.93;96126.31;4934326;29;20615;-80
2023/01/04 04:37:31;;;;;;;32.08;19.08;;;;;;;7.25;80.04;96226.16;4934244;29;20557;-80
2023/01/04 04:39:57;;;;;;;30.63;19.10;;;;;;;6.86;79.94;96155.56;4950073;29;20035;-80
2023/01/04 04:42:23;;;;;;;34.28;18.67;;;;;;;6.89;80.00;96165.66;4951464;28;20478;-80
2023/01/04 04:44:48;;;;;;;31.48;17.80;;;;;;;7.25;80.00;96238.53;4951633;29;20498;-80
2023/01/04 04:47:14;;;;;;;32.35;17.88;;;;;;;6.70;80.31;96143.84;4951761;28;20046;-80
2023/01/04 04:49:39;;;;;;;29.05;17.95;;;;;;;7.03;80.09;96190.00;4933890;29;20032;-80
2023/01/04 04:52:04;;;;;;;35.85;18.30;;;;;;;6.94;79.88;96171.84;4951149;28;20035;-80
2023/01/04 04:54:30;;;;;;;36.67;16.92;;;;;;;7.18;79.85;96229.94;4937571;29;20454;-80
2023/01/04 04:56:55;;;;;;;28.52;17.67;;;;;;;6.55;79.90;96130.28;4934022;29;20135;-80
2023/01/04 04:59:21;;;;;;;31.73;16.73;;;;;;;6.58;79.93;96133.25;4939603;29;20046;-80
2023/01/04 05:01:47;;;;;;;36.85;18.13;;;;;;;6.39;79.80;96113.28;4933694;28;20413;-80
2023/01/04 05:04:18;;;;;;;37.83;18.27;;;;;;;6.86;79.98;96197.75;4950873;29;20051;-79
2023/01/04 05:06:44;;;;;;;34.65;18.30;;;;;;;6.83;80.26;96174.47;4945375;28;20057;-80
2023/01/04 05:09:11;;;;;;;31.98;18.05;;;;;;;7.16;80.16;96240.72;4945821;29;20534;-80
2023/01/04 05:14:21;;;;;;;32.75;19.20;;;;;;;6.79;80.29;96195.19;4949599;29;20046;-80
2023/01/04 05:16:46;;;;;;;32.88;17.83;;;;;;;6.50;80.16;96181.00;4932204;28;20035;-79
2023/01/04 05:19:11;;;;;;;33.65;18.30;;;;;;;6.42;80.03;96146.25;4960755;28;20183;-80
2023/01/04 05:21:38;;;;;;;33.20;17.98;;;;;;;6.91;80.10;96229.53;4950192;28;20052;-80
2023/01/04 05:24:05;;;;;;;27.77;16.40;;;;;;;6.82;80.31;96202.66;4925708;29;20055;-80
2023/01/04 05:26:30;;;;;;;31.42;17.85;;;;;;;6.50;80.30;96151.22;4936806;28;20031;-81
2023/01/04 05:28:55;;;;;;;33.35;18.77;;;;;;;7.07;80.00;96241.28;4939525;28;20514;-80
2023/01/04 05:31:21;;;;;;;34.78;18.27;;;;;;;6.33;80.14;96129.16;4930529;28;20122;-80
2023/01/04 05:33:46;;;;;;;34.28;19.48;;;;;;;6.78;80.25;96216.53;4931680;28;20070;-80
2023/01/04 05:36:12;;;;;;;38.97;20.65;;;;;;;7.07;80.25;96257.91;4934551;28;20375;-80
2023/01/04 05:38:37;;;;;;;33.00;19.55;;;;;;;6.21;80.12;96115.94;4942262;28;20069;-81
2023/01/04 05:41:03;;;;;;;43.55;19.30;;;;;;;6.79;80.46;96215.50;4941067;28;20419;-80
2023/01/04 05:43:28;;;;;;;39.60;20.65;;;;;;;6.72;80.16;96206.88;4936686;28;20599;-80
2023/01/04 05:45:55;;;;;;;33.42;18.85;;;;;;;6.40;80.60;96153.59;4941760;28;20051;-80
2023/01/04 05:48:22;;;;;;;33.58;19.45;;;;;;;6.27;80.13;96132.66;4941935;28;20097;-81
2023/01/04 05:50:48;;;;;;;30.58;18.50;;;;;;;6.55;80.04;96170.63;4956308;28;20063;-80
2023/01/04 05:53:18;;;;;;;36.40;19.27;;;;;;;7.05;79.98;96264.44;4940106;28;20097;-81
2023/01/04 05:55:46;;;;;;;37.88;18.65;;;;;;;7.05;80.33;96254.69;4940798;28;20123;-81
2023/01/04 05:58:11;;;;;;;33.42;19.10;;;;;;;6.74;80.09;96205.63;4936729;28;20587;-80
2023/01/04 06:00:37;;;;;;;33.15;18.63;;;;;;;6.97;79.62;96245.25;4945216;28;20046;-81
2023/01/04 06:03:02;;;;;;;37.75;19.30;;;;;;;6.85;79.51;96207.50;4939928;28;20098;-81
2023/01/04 06:05:28;;;;;;;43.17;20.38;;;;;;;6.80;79.24;96193.38;4958639;28;20098;-82
2023/01/04 06:07:53;;;;;;;38.05;18.75;;;;;;;7.03;79.16;96227.72;4939344;28;20039;-83
2023/01/04 06:10:19;;;;;;;33.78;19.48;;;;;;;6.62;79.29;96193.44;4947940;28;20047;-82
2023/01/04 06:12:46;;;;;;;36.30;18.38;;;;;;;6.61;79.58;96184.72;4941790;28;20035;-84
2023/01/04 06:15:12;;;;;;;39.45;19.08;;;;;;;6.52;79.33;96163.16;4938935;28;20043;-84
2023/01/04 06:17:38;;;;;;;35.05;19.75;;;;;;;6.17;79.32;96097.16;4937826;28;20039;-82
2023/01/04 06:20:05;;;;;;;30.33;18.10;;;;;;;6.63;79.21;96195.03;4936371;28;20059;-81
2023/01/04 06:22:31;;;;;;;32.55;19.75;;;;;;;7.09;79.84;96269.03;4940087;28;20043;-81
2023/01/04 06:24:57;;;;;;;146.80;25.05;;;;;;;7.10;79.61;96277.72;4928053;28;20414;-84
2023/01/04 06:27:23;;;;;;;28.88;17.98;;;;;;;7.02;79.84;96270.94;4913194;28;20045;-82
2023/01/04 06:29:48;;;;;;;37.20;19.55;;;;;;;6.55;79.45;96189.06;4937360;28;20046;-82
2023/01/04 06:32:13;;;;;;;39.72;18.73;;;;;;;7.25;79.54;96278.13;4924069;28;20062;-81
2023/01/04 06:34:39;;;;;;;39.85;19.17;;;;;;;7.21;79.46;96284.91;4927996;28;20922;-82
2023/01/04 06:37:05;;;;;;;41.80;21.70;;;;;;;6.68;79.49;96205.72;4932850;28;20419;-82
2023/01/04 06:39:31;;;;;;;32.78;18.35;;;;;;;7.11;79.71;96290.72;4934059;28;20580;-81
2023/01/04 06:41:56;;;;;;;31.83;17.63;;;;;;;7.17;79.48;96310.91;4927200;28;20035;-81
2023/01/04 06:44:21;;;;;;;37.58;20.80;;;;;;;6.86;79.62;96255.78;4930852;28;20036;-82
2023/01/04 06:46:47;;;;;;;41.38;19.73;;;;;;;6.70;79.69;96228.19;4931042;28;20046;-82
2023/01/04 06:49:13;;;;;;;37.53;19.17;;;;;;;7.13;79.89;96299.22;4929368;28;20044;-81
2023/01/04 06:51:38;;;;;;;40.58;18.83;;;;;;;6.82;79.10;96254.59;4937944;28;20387;-82
2023/01/04 06:54:04;;;;;;;35.72;19.63;;;;;;;7.14;79.41;96303.47;4922889;28;20157;-82
2023/01/04 06:56:31;;;;;;;32.60;18.05;;;;;;;6.54;79.35;96190.09;4938522;28;20043;-82
2023/01/04 06:58:56;;;;;;;30.80;18.90;;;;;;;6.70;79.26;96204.47;4930189;28;20054;-81
2023/01/04 07:01:22;;;;;;;37.67;18.63;;;;;;;6.88;79.10;96246.59;4927181;28;20506;-82
2023/01/04 07:03:47;;;;;;;33.92;18.58;;;;;;;6.82;79.09;96236.13;4939213;28;20089;-81
2023/01/04 07:06:12;;;;;;;34.45;17.15;;;;;;;6.95;78.92;96257.84;4924911;29;20426;-81
2023/01/04 07:08:38;;;;;;;37.83;18.10;;;;;;;6.86;78.69;96235.50;4943006;28;20117;-81
2023/01/04 07:11:04;;;;;;;31.73;17.98;;;;;;;5.94;78.44;96088.34;4927966;28;20031;-82
2023/01/04 07:13:29;;;;;;;39.70;18.33;;;;;;;7.28;78.38;96304.06;4935810;28;20037;-81
2023/01/04 07:15:55;;;;;;;35.38;18.42;;;;;;;7.31;77.99;96295.72;4928877;28;20182;-82
2023/01/04 07:18:21;;;;;;;33.80;18.70;;;;;;;6.97;77.80;96255.81;4923066;28;20058;-82
2023/01/04 07:20:46;;;;;;;38.97;19.75;;;;;;;7.06;77.94;96263.41;4929152;29;20679;-80
2023/01/04 07:23:12;;;;;;;33.65;18.25;;;;;;;7.09;77.66;96262.97;4940318;28;20093;-80
2023/01/04 07:25:37;;;;;;;36.17;18.35;;;;;;;7.20;77.47;96286.72;4927157;29;20040;-80
2023/01/04 07:28:02;;;;;;;35.20;18.48;;;;;;;6.75;77.76;96227.53;4925186;28;20512;-81
2023/01/04 07:30:28;;;;;;;30.55;16.70;;;;;;;6.63;77.77;96216.13;4938906;28;20077;-80
2023/01/04 07:32:54;;;;;;;41.75;18.25;;;;;;;6.87;77.88;96247.63;4925472;28;20031;-81
2023/01/04 07:35:20;;;;;;;32.60;17.55;;;;;;;7.40;77.62;96318.09;4914209;28;20189;-81
2023/01/04 07:37:46;;;;;;;34.28;18.55;;;;;;;7.05;76.99;96259.97;4936409;28;20086;-81
2023/01/04 07:40:12;;;;;;;41.15;18.90;;;;;;;7.40;77.59;96301.47;4938143;28;20479;-81
2023/01/04 07:42:37;;;;;;;35.53;17.67;;;;;;;6.97;77.44;96245.25;4940930;28;20526;-82
2023/01/04 07:45:05;;;;;;;34.63;17.23;;;;;;;7.23;77.20;96285.47;4928090;28;20039;-81
2023/01/04 07:47:31;;;;;;;38.28;17.92;;;;;;;7.03;76.99;96234.81;4939775;28;20035;-80
2023/01/04 07:49:56;;;;;;;32.17;15.95;;;;;;;7.18;76.67;96266.88;4933579;29;20136;-80
2023/01/04 07:52:22;;;;;;;32.67;16.77;;;;;;;7.51;76.48;96296.22;4936567;28;20377;-84
2023/01/04 07:54:47;;;;;;;33.22;17.30;;;;;;;6.56;76.63;96139.78;4925422;29;20130;-83
2023/01/04 07:57:13;;;;;;;35.00;18.05;;;;;;;7.20;76.43;96264.81;4927627;28;20031;-83
2023/01/04 07:59:38;;;;;;;33.72;17.42;;;;;;;6.98;76.50;96224.97;4928701;29;20172;-82
2023/01/04 08:02:04;;;;;;;32.03;17.63;;;;;;;6.96;76.25;96242.84;4929293;28;20477;-84
2023/01/04 08:04:30;;;;;;;31.15;17.02;;;;;;;6.84;76.79;96213.81;4929666;28;20042;-83
2023/01/04 08:06:55;;;;;;;32.28;16.73;;;;;;;6.80;76.33;96209.19;4931646;29;20027;-85
2023/01/04 08:09:21;;;;;;;28.95;16.52;;;;;;;7.17;76.04;96271.34;4938625;28;20125;-83
2023/01/04 08:11:46;;;;;;;34.97;18.55;;;;;;;6.92;76.17;96244.31;4919722;28;20970;-82
2023/01/04 08:14:12;;;;;;;31.92;17.55;;;;;;;7.00;76.77;96237.94;4922359;29;20047;-81
2023/01/04 08:16:40;;;;;;;34.85;17.33;;;;;;;7.59;76.74;96334.69;4924228;28;20039;-82
2023/01/04 08:19:11;;;;;;;30.65;17.02;;;;;;;7.10;76.10;96256.63;4923720;29;20502;-82
2023/01/04 08:21:37;;;;;;;35.28;16.73;;;;;;;7.28;76.29;96278.50;4939715;28;20043;-81
2023/01/04 08:24:03;;;;;;;39.47;16.90;;;;;;;7.74;76.03;96330.56;4928211;28;20041;-80
2023/01/04 08:26:29;;;;;;;31.88;17.65;;;;;;;7.86;75.52;96327.16;4922528;29;20073;-80
2023/01/04 08:28:55;;;;;;;30.73;16.38;;;;;;;7.27;74.66;96262.88;4943048;28;20058;-81
2023/01/04 08:31:24;;;;;;;33.65;17.20;;;;;;;7.53;75.27;96291.53;4927569;28;20192;-84
2023/01/04 08:33:49;;;;;;;31.70;17.92;;;;;;;7.34;75.34;96282.84;4930346;29;20097;-80
2023/01/04 08:36:19;;;;;;;27.75;16.77;;;;;;;7.11;75.41;96272.25;4937374;28;20486;-81
2023/01/04 08:38:45;;;;;;;28.55;16.13;;;;;;;7.36;75.53;96294.00;4941258;28;20665;-80
2023/01/04 08:41:11;;;;;;;32.35;16.98;;;;;;;7.24;75.55;96279.19;4926902;29;20035;-81
2023/01/04 08:43:37;;;;;;;33.33;17.88;;;;;;;7.68;75.20;96347.34;4919467;29;20137;-82
2023/01/04 08:46:04;;;;;;;30.35;17.02;;;;;;;7.13;75.46;96272.81;4940855;28;20121;-83
2023/01/04 08:48:33;;;;;;;34.33;18.17;;;;;;;7.19;75.71;96285.13;4939960;28;20082;-82
2023/01/04 08:51:05;;;;;;;32.28;18.08;;;;;;;7.62;75.60;96344.81;4940799;28;20046;-84
2023/01/04 08:53:31;;;;;;;29.95;17.60;;;;;;;7.18;75.33;96259.75;4929606;29;20032;-85
2023/01/04 08:55:59;;;;;;;31.50;17.77;;;;;;;7.15;75.23;96260.22;4928082;28;20134;-84
2023/01/04 08:58:27;;;;;;;37.80;18.65;;;;;;;6.24;75.57;96118.13;4932748;29;20039;-80
2023/01/04 09:00:53;;;;;;;34.65;18.02;;;;;;;7.70;75.52;96337.31;4921251;28;20186;-79
2023/01/04 09:03:18;;;;;;;36.83;18.27;;;;;;;7.64;75.14;96340.06;4928087;28;20354;-79
2023/01/04 09:05:44;;;;;;;29.48;17.17;;;;;;;7.31;75.59;96301.00;4929620;29;20035;-79
2023/01/04 09:08:10;;;;;;;32.53;17.25;;;;;;;6.95;75.26;96254.41;4926040;29;20030;-79
2023/01/04 09:10:37;;;;;;;33.13;17.38;;;;;;;7.46;75.34;96335.69;4938068;28;20031;-79
2023/01/04 09:13:03;;;;;;;35.22;18.90;;;;;;;7.57;75.79;96345.47;4941100;28;20039;-78
2023/01/04 09:15:29;;;;;;;39.63;19.10;;;;;;;7.42;75.06;96307.31;4934913;29;20075;-79
2023/01/04 09:17:54;;;;;;;34.92;19.27;;;;;;;6.89;74.76;96208.66;4926787;28;20130;-80
2023/01/04 09:20:19;;;;;;;31.90;17.13;;;;;;;7.46;74.71;96317.22;4928428;28;20062;-78
2023/01/04 09:22:45;;;;;;;28.85;17.40;;;;;;;7.16;74.53;96288.22;4941018;28;20525;-79
2023/01/04 09:25:10;;;;;;;27.90;15.70;;;;;;;6.90;74.99;96262.19;4939924;28;20042;-80
2023/01/04 09:27:38;;;;;;;30.23;17.75;;;;;;;7.01;74.69;96263.28;4938482;28;20032;-78
2023/01/04 09:30:04;;;;;;;32.92;17.42;;;;;;;7.49;74.74;96327.31;4938159;28;20461;-78
2023/01/04 09:32:30;;;;;;;33.13;17.23;;;;;;;7.51;74.44;96319.97;4938858;28;20023;-79
2023/01/04 09:34:55;;;;;;;31.67;16.20;;;;;;;6.77;73.97;96207.00;4948867;28;20359;-79
2023/01/04 09:37:21;;;;;;;30.60;16.65;;;;;;;7.44;74.18;96314.00;4942712;28;20124;-81
2023/01/04 09:39:46;;;;;;;28.50;16.17;;;;;;;7.30;73.81;96294.91;4941003;28;20039;-79
2023/01/04 09:42:37;;;;;;;30.27;15.80;;;;;;;7.52;73.87;96328.69;4941700;28;20064;-80
2023/01/04 09:45:17;;;;;;;29.52;15.88;;;;;;;7.53;73.75;96332.94;4935405;28;20043;-80
2023/01/04 09:47:55;;;;;;;30.35;16.35;;;;;;;7.33;74.24;96318.19;4941583;28;20035;-79
2023/01/04 09:50:24;;;;;;;33.05;15.80;;;;;;;7.30;74.44;96308.09;4944993;28;20074;-79
2023/01/04 09:53:11;;;;;;;29.58;16.10;;;;;;;6.85;74.62;96252.34;4939385;28;20061;-80
2023/01/04 09:55:41;;;;;;;31.17;15.85;;;;;;;7.35;74.83;96321.41;4952731;28;20561;-81
2023/01/04 09:58:22;;;;;;;34.55;16.15;;;;;;;7.25;75.08;96315.88;4944120;28;20051;-80
2023/01/04 10:00:54;;;;;;;26.20;15.25;;;;;;;6.97;75.22;96263.72;4958810;28;20110;-80
2023/01/04 10:03:27;;;;;;;25.63;15.38;;;;;;;6.88;74.83;96253.69;4949984;28;20125;-80
2023/01/04 10:05:54;;;;;;;30.35;16.05;;;;;;;7.38;74.82;96319.38;4944662;28;20498;-82
2023/01/04 10:08:19;;;;;;;26.30;15.60;;;;;;;7.08;74.56;96277.19;4959764;28;20585;-84
2023/01/04 10:10:54;;;;;;;36.08;16.52;;;;;;;7.40;74.11;96319.97;4953979;28;20042;-79
2023/01/04 10:13:38;;;;;;;33.17;16.67;;;;;;;7.43;73.70;96322.94;4942792;28;20550;-81
2023/01/04 10:16:12;;;;;;;30.05;16.48;;;;;;;7.28;73.81;96298.78;4949334;28;20035;-79
2023/01/04 10:19:02;;;;;;;33.78;17.10;;;;;;;7.47;73.60;96307.47;4950552;28;20031;-81
2023/01/04 10:21:54;;;;;;;31.83;16.13;;;;;;;7.47;73.78;96308.28;4942539;28;20165;-80
2023/01/04 10:24:22;;;;;;;;;;;;;;;7.48;73.91;96304.56;4936992;28;20054;-78
2023/01/04 10:26:50;;;;;;;35.42;16.65;;;;;;;7.39;73.97;96298.03;4951139;28;19922;-81
2023/01/04 10:29:38;;;;;;;30.48;17.77;;;;;;;7.58;73.95;96304.84;4931240;28;20226;-80
2023/01/04 10:32:16;;;;;;;38.03;18.20;;;;;;;7.32;73.43;96255.88;4932181;29;20063;-79
2023/01/04 10:34:49;;;;;;;37.35;17.17;;;;;;;7.81;73.04;96313.81;4932338;28;20027;-83
2023/01/04 10:37:19;;;;;;;29.08;15.82;;;;;;;7.83;72.67;96317.84;4930906;29;20074;-79
2023/01/04 10:39:49;;;;;;;30.45;15.75;;;;;;;7.16;72.65;96205.63;4935221;28;20122;-78
2023/01/04 10:42:39;;;;;;;39.05;16.95;;;;;;;7.71;73.04;96312.53;4931229;28;20122;-78
2023/01/04 10:45:14;;;;;;;26.17;16.60;;;;;;;7.00;73.47;96201.81;4935183;28;20054;-78
2023/01/04 10:47:45;;;;;;;39.33;16.65;;;;;;;7.56;73.52;96303.44;4934180;28;20133;-78
2023/01/04 10:50:17;;;;;;;;;;;;;;;7.72;73.56;96313.34;4940630;29;20408;-78
2023/01/04 10:52:55;;;;;;;33.08;16.50;;;;;;;7.51;73.59;96301.50;4947091;28;19953;-79
2023/01/04 10:55:35;;;;;;;25.55;15.80;;;;;;;7.25;73.85;96271.00;4940803;28;20046;-79
2023/01/04 10:58:28;;;;;;;28.67;15.07;;;;;;;6.83;74.31;96220.09;4942096;28;20038;-81
2023/01/04 11:01:03;;;;;;;23.15;13.88;;;;;;;7.34;73.88;96282.84;4934990;29;20031;-78
2023/01/04 11:03:46;;;;;;;27.63;15.15;;;;;;;7.55;74.12;96307.13;4943830;28;20038;-80
2023/01/04 11:06:42;;;;;;;25.38;13.75;;;;;;;6.48;73.92;96142.75;4932853;28;20047;-78
2023/01/04 11:09:25;;;;;;;29.38;14.52;;;;;;;7.59;74.19;96295.09;4939631;28;20047;-79
2023/01/04 11:11:54;;;;;;;30.48;16.15;;;;;;;7.63;73.97;96283.03;4938733;28;20043;-78
2023/01/04 11:14:20;;;;;;;28.33;14.90;;;;;;;7.72;73.66;96284.31;4938826;28;20082;-78
2023/01/04 11:16:49;;;;;;;28.60;15.48;;;;;;;7.69;73.48;96258.38;4939541;28;20448;-82
2023/01/04 11:19:15;;;;;;;27.50;15.23;;;;;;;7.28;73.73;96201.97;4947870;28;20027;-81
2023/01/04 11:22:14;;;;;;;33.42;15.52;;;;;;;8.03;73.27;96278.69;4936619;28;20130;-78
2023/01/04 11:24:44;;;;;;;20.90;12.93;;;;;;;7.99;71.95;96274.09;4938601;28;20039;-83
2023/01/04 11:27:16;;;;;;;26.13;13.17;;;;;;;8.07;71.91;96271.13;4932937;28;20417;-79
2023/01/04 11:29:57;;;;;;;;;;;;;;;8.18;71.88;96275.56;4934642;28;20200;-80
2023/01/04 11:32:40;;;;;;;23.27;13.00;;;;;;;8.23;71.49;96282.81;4948671;28;19933;-79
2023/01/04 11:35:06;;;;;;;21.48;13.35;;;;;;;7.72;71.30;96191.88;4947432;28;20039;-79
2023/01/04 11:37:37;;;;;;;27.35;15.02;;;;;;;7.90;72.20;96215.53;4936626;28;20039;-78
2023/01/04 11:40:16;;;;;;;22.70;14.30;;;;;;;8.24;71.46;96268.59;4936521;28;20734;-80
2023/01/04 11:42:42;;;;;;;26.02;14.43;;;;;;;7.88;71.15;96204.38;4952942;28;20046;-80
2023/01/04 11:45:25;;;;;;;26.00;14.95;;;;;;;8.09;71.74;96250.53;4933172;28;20171;-80
2023/01/04 11:47:56;;;;;;;28.00;14.50;;;;;;;7.87;71.38;96201.97;4956067;28;20043;-80
2023/01/04 11:50:33;;;;;;;29.73;13.77;;;;;;;8.29;71.33;96258.91;4939482;28;20035;-80
2023/01/04 11:52:59;;;;;;;30.23;14.90;;;;;;;8.12;71.34;96207.81;4942303;28;20043;-79
2023/01/04 11:55:29;;;;;;;27.58;13.50;;;;;;;7.81;71.42;96172.03;4944328;28;20478;-80
2023/01/04 11:58:10;;;;;;;30.80;14.85;;;;;;;6.41;71.68;95983.91;4954366;28;20047;-80
2023/01/04 12:00:36;;;;;;;26.17;14.20;;;;;;;7.97;71.93;96220.69;4962496;28;20031;-80
2023/01/04 12:03:17;;;;;;;27.60;14.30;;;;;;;7.84;72.34;96207.72;4937676;28;20052;-80
2023/01/04 12:05:43;;;;;;;27.63;16.45;;;;;;;7.98;72.09;96204.63;4954652;28;20093;-80
2023/01/04 12:08:31;;;;;;;34.60;15.73;;;;;;;8.44;71.73;96242.59;4945266;28;22394;-81
2023/01/04 12:11:03;;;;;;;28.23;14.30;;;;;;;8.45;71.16;96242.38;4949968;28;20067;-80
2023/01/04 12:13:32;;;;;;;24.88;12.93;;;;;;;8.63;70.55;96240.56;4930380;28;20045;-79
2023/01/04 12:16:33;;;;;;;23.88;13.77;;;;;;;8.42;70.35;96200.53;4935846;28;20512;-79